Time;durP1;ratioP1;P1;durP2;ratioP2;P2;SDS_P1;SDS_P2;PMS_P1;PMS_P2;Temp;Humidity;BMP_temperature;BMP_pressure;BME280_temperature;BME280_humidity;BME280_pressure;Samples;Min_cycle;Max_cycle;Signal;HPM_P1;HPM_P2
2021/10/19 00:02:06;;;;;;;15.18;9.90;;;25.10;99.90;;;;;;1990616;70;21131;-78
2021/10/19 00:04:37;;;;;;;16.45;10.53;;;25.10;99.90;;;;;;1978897;70;21143;-79
2021/10/19 00:07:08;;;;;;;19.05;10.25;;;25.10;99.90;;;;;;1994785;70;21114;-78
2021/10/19 00:09:39;;;;;;;21.62;10.38;;;25.10;99.90;;;;;;1994464;70;21169;-79
2021/10/19 00:12:10;;;;;;;12.45;9.10;;;25.20;99.90;;;;;;1993594;70;21103;-78
2021/10/19 00:14:40;;;;;;;14.20;8.88;;;25.20;99.90;;;;;;1993278;70;21134;-78
2021/10/19 00:17:11;;;;;;;17.48;8.93;;;25.20;99.90;;;;;;1996070;70;21190;-79
2021/10/19 00:19:43;;;;;;;12.75;7.85;;;25.20;99.90;;;;;;1977575;69;21577;-79
2021/10/19 00:22:14;;;;;;;12.03;7.90;;;25.30;99.90;;;;;;2001846;70;21157;-79
2021/10/19 00:24:44;;;;;;;10.13;6.90;;;25.30;99.90;;;;;;1984737;70;21072;-78
2021/10/19 00:27:15;;;;;;;12.00;6.67;;;25.30;99.90;;;;;;1978228;70;21119;-79
2021/10/19 00:29:46;;;;;;;15.03;7.87;;;25.40;99.90;;;;;;1977562;69;21203;-79
2021/10/19 00:32:17;;;;;;;16.90;6.78;;;25.40;99.90;;;;;;1980176;70;21170;-79
2021/10/19 00:34:48;;;;;;;9.53;6.17;;;25.40;99.90;;;;;;1990234;70;21490;-73
2021/10/19 00:37:19;;;;;;;13.58;6.53;;;25.50;99.90;;;;;;2000072;70;21115;-74
2021/10/19 00:39:49;;;;;;;14.98;6.92;;;25.40;99.90;;;;;;1979655;70;21161;-71
2021/10/19 00:42:20;;;;;;;11.45;6.50;;;25.50;99.90;;;;;;1979874;70;21216;-73
2021/10/19 00:44:51;;;;;;;17.35;7.62;;;25.60;99.90;;;;;;1994966;69;21149;-72
2021/10/19 00:47:23;;;;;;;14.13;7.05;;;25.50;99.90;;;;;;1979128;70;21139;-73
2021/10/19 00:49:53;;;;;;;11.40;6.83;;;25.60;99.90;;;;;;1913593;71;21143;-73
2021/10/19 00:52:24;;;;;;;9.75;5.85;;;25.60;99.90;;;;;;1977109;69;21096;-73
2021/10/19 00:54:56;;;;;;;9.23;5.70;;;25.60;99.90;;;;;;1989721;69;21417;-74
2021/10/19 00:57:26;;;;;;;9.23;5.47;;;25.70;99.90;;;;;;1950966;72;21700;-73
2021/10/19 00:59:57;;;;;;;11.50;5.75;;;25.80;99.90;;;;;;1906915;72;21158;-72
2021/10/19 01:02:29;;;;;;;9.40;5.40;;;25.80;99.90;;;;;;1947804;70;21109;-73
2021/10/19 01:05:00;;;;;;;11.10;5.40;;;25.80;99.90;;;;;;1979141;69;21201;-73
2021/10/19 01:07:31;;;;;;;10.75;5.95;;;25.90;99.90;;;;;;1924091;72;21135;-73
2021/10/19 01:10:04;;;;;;;10.38;5.10;;;25.90;99.90;;;;;;1902179;73;21073;-73
2021/10/19 01:12:36;;;;;;;9.95;5.25;;;26.00;99.90;;;;;;1944384;71;21648;-73
2021/10/19 01:15:09;;;;;;;9.48;4.92;;;26.00;99.90;;;;;;1979823;70;21104;-73
2021/10/19 01:17:42;;;;;;;9.50;4.90;;;26.10;99.90;;;;;;1998386;70;21196;-73
2021/10/19 01:20:15;;;;;;;8.00;4.42;;;26.20;99.90;;;;;;1981663;70;21120;-73
2021/10/19 01:22:46;;;;;;;7.37;4.70;;;26.20;99.90;;;;;;1978594;70;21206;-73
2021/10/19 01:25:19;;;;;;;9.05;4.55;;;26.20;99.90;;;;;;1998818;69;21512;-72
2021/10/19 01:27:52;;;;;;;8.88;5.03;;;26.30;99.90;;;;;;1995073;69;21575;-73
2021/10/19 01:30:24;;;;;;;5.78;3.33;;;26.30;99.90;;;;;;1972757;69;21419;-72
2021/10/19 01:32:56;;;;;;;7.90;3.60;;;26.40;99.90;;;;;;2007442;70;21068;-73
2021/10/19 01:35:30;;;;;;;10.23;3.52;;;26.40;99.90;;;;;;1972355;71;21617;-72
2021/10/19 01:38:01;;;;;;;6.62;3.62;;;26.50;99.80;;;;;;1980921;70;21099;-72
2021/10/19 01:40:32;;;;;;;4.53;2.95;;;26.50;99.90;;;;;;1986140;70;21121;-72
2021/10/19 01:43:03;;;;;;;6.53;3.20;;;26.50;99.90;;;;;;1984843;70;21126;-72
2021/10/19 01:45:34;;;;;;;4.97;3.02;;;26.50;99.50;;;;;;2001265;70;21126;-72
2021/10/19 01:48:05;;;;;;;6.22;3.37;;;26.50;99.70;;;;;;1930559;73;21303;-72
2021/10/19 01:50:37;;;;;;;6.70;3.35;;;26.50;99.90;;;;;;1975606;70;21640;-73
2021/10/19 01:53:09;;;;;;;6.67;3.30;;;26.50;99.90;;;;;;1973598;70;21095;-72
2021/10/19 01:55:42;;;;;;;8.88;3.65;;;26.60;99.90;;;;;;2002094;70;21111;-75
2021/10/19 01:58:16;;;;;;;6.85;3.25;;;26.60;99.90;;;;;;1985429;70;21122;-72
2021/10/19 02:00:47;;;;;;;5.55;3.27;;;26.60;99.90;;;;;;1975655;69;21682;-74
2021/10/19 02:03:18;;;;;;;4.33;2.55;;;26.70;99.90;;;;;;1990451;69;21566;-72
2021/10/19 02:05:55;;;;;;;3.80;2.33;;;26.70;99.80;;;;;;1977234;70;21124;-74
2021/10/19 02:08:29;;;;;;;6.28;2.40;;;26.70;99.50;;;;;;1981865;70;21375;-74
2021/10/19 02:10:59;;;;;;;3.45;2.12;;;26.80;99.50;;;;;;2007450;70;21231;-73
2021/10/19 02:13:30;;;;;;;7.22;2.00;;;26.90;99.10;;;;;;1988219;70;21106;-73
2021/10/19 02:16:01;;;;;;;2.42;1.60;;;26.90;98.90;;;;;;1973590;71;21128;-74
2021/10/19 02:18:32;;;;;;;4.35;2.45;;;26.90;98.60;;;;;;2002497;70;21569;-73
2021/10/19 02:21:02;;;;;;;3.30;1.80;;;26.90;98.50;;;;;;1984210;70;21589;-72
2021/10/19 02:23:33;;;;;;;3.80;2.27;;;26.90;98.40;;;;;;2013013;70;21279;-74
2021/10/19 02:26:04;;;;;;;3.22;1.80;;;26.90;98.20;;;;;;2017184;69;21205;-75
2021/10/19 02:28:34;;;;;;;3.62;2.20;;;26.90;98.30;;;;;;2000270;70;21229;-72
2021/10/19 02:31:06;;;;;;;5.60;1.98;;;26.90;98.50;;;;;;1992462;70;21074;-73
2021/10/19 02:33:37;;;;;;;7.83;2.15;;;27.00;98.50;;;;;;1970319;70;21080;-72
2021/10/19 02:36:08;;;;;;;3.52;2.27;;;27.00;98.70;;;;;;2016323;70;21235;-72
2021/10/19 02:38:39;;;;;;;3.45;2.05;;;27.00;98.80;;;;;;2002819;70;21127;-73
2021/10/19 02:41:09;;;;;;;4.92;2.27;;;27.00;98.90;;;;;;2001813;69;21062;-71
2021/10/19 02:43:40;;;;;;;5.12;2.47;;;27.10;98.70;;;;;;1990104;69;21172;-71
2021/10/19 02:46:13;;;;;;;5.15;2.05;;;27.10;98.70;;;;;;1986000;70;22190;-73
2021/10/19 02:48:44;;;;;;;4.17;2.10;;;27.10;98.80;;;;;;2004383;70;21095;-73
2021/10/19 02:51:15;;;;;;;3.70;2.30;;;27.20;98.80;;;;;;1986181;69;21183;-73
2021/10/19 02:53:46;;;;;;;5.03;2.30;;;27.10;98.70;;;;;;2000840;70;21179;-73
2021/10/19 02:56:17;;;;;;;5.17;2.58;;;27.20;98.80;;;;;;2014391;69;21920;-73
2021/10/19 02:58:48;;;;;;;5.80;2.37;;;27.20;98.80;;;;;;1993330;70;21170;-71
2021/10/19 03:01:18;;;;;;;4.55;2.92;;;27.20;98.80;;;;;;1967377;70;21138;-72
2021/10/19 03:03:49;;;;;;;4.62;2.37;;;27.20;98.80;;;;;;1999460;69;22554;-75
2021/10/19 03:06:20;;;;;;;8.13;2.62;;;27.20;98.90;;;;;;1980473;69;21131;-70
2021/10/19 03:08:51;;;;;;;6.08;2.60;;;27.20;99.00;;;;;;2002406;69;21193;-72
2021/10/19 03:11:22;;;;;;;4.30;2.50;;;27.20;98.90;;;;;;1975453;70;21189;-71
2021/10/19 03:13:52;;;;;;;7.67;2.83;;;27.10;99.10;;;;;;1977484;70;21151;-71
2021/10/19 03:16:25;;;;;;;5.72;2.67;;;27.20;99.20;;;;;;1999803;70;21125;-72
2021/10/19 03:18:55;;;;;;;3.27;2.27;;;27.20;99.60;;;;;;1986163;70;21210;-71
2021/10/19 03:21:26;;;;;;;5.22;2.62;;;27.20;99.00;;;;;;1984937;70;21688;-71
2021/10/19 03:23:57;;;;;;;5.78;2.58;;;27.20;99.20;;;;;;1983645;70;21201;-71
2021/10/19 03:26:28;;;;;;;6.87;3.33;;;27.20;99.00;;;;;;1985354;69;21283;-71
2021/10/19 03:28:59;;;;;;;6.60;2.90;;;27.30;99.10;;;;;;1987404;70;21224;-71
2021/10/19 03:31:35;;;;;;;5.45;2.47;;;27.40;99.00;;;;;;1996302;70;21622;-71
2021/10/19 03:34:03;;;;;;;3.92;2.27;;;27.40;98.90;;;;;;1988036;70;21112;-71
2021/10/19 03:36:34;;;;;;;3.47;1.92;;;27.50;98.80;;;;;;2003833;70;22617;-72
2021/10/19 03:39:05;;;;;;;6.37;3.20;;;27.50;98.70;;;;;;2009256;70;21166;-72
2021/10/19 03:41:35;;;;;;;3.30;2.08;;;27.60;98.60;;;;;;1985782;69;21236;-72
2021/10/19 03:44:07;;;;;;;4.15;1.90;;;27.70;98.20;;;;;;1998240;70;21220;-72
2021/10/19 03:46:38;;;;;;;3.37;1.82;;;27.70;97.80;;;;;;1998520;70;21205;-72
2021/10/19 03:49:08;;;;;;;4.22;2.00;;;27.80;97.00;;;;;;1998816;70;21163;-72
2021/10/19 03:51:39;;;;;;;3.85;1.37;;;27.80;97.10;;;;;;2002461;70;21625;-73
2021/10/19 03:54:10;;;;;;;5.72;2.00;;;27.80;97.20;;;;;;2004659;70;21140;-72
2021/10/19 03:56:41;;;;;;;3.17;1.62;;;27.80;97.50;;;;;;1988977;70;21106;-72
2021/10/19 03:59:12;;;;;;;4.40;2.05;;;27.80;97.50;;;;;;1987793;70;21145;-72
2021/10/19 04:01:43;;;;;;;4.47;2.30;;;27.80;97.70;;;;;;2012243;70;21630;-73
2021/10/19 04:04:14;;;;;;;3.98;1.90;;;27.80;97.70;;;;;;1979713;70;21197;-72
2021/10/19 04:06:45;;;;;;;7.28;3.33;;;27.80;97.80;;;;;;2008684;70;21092;-72
2021/10/19 04:09:16;;;;;;;3.67;1.80;;;27.80;97.90;;;;;;1987732;71;21131;-73
2021/10/19 04:11:46;;;;;;;2.72;1.80;;;27.80;97.70;;;;;;1995478;70;21279;-73
2021/10/19 04:14:17;;;;;;;3.62;1.95;;;27.80;97.60;;;;;;2003315;70;21583;-73
2021/10/19 04:16:48;;;;;;;2.70;1.70;;;27.80;97.50;;;;;;1991664;70;21221;-73
2021/10/19 04:19:20;;;;;;;7.47;2.70;;;27.90;97.60;;;;;;1993785;70;21909;-74
2021/10/19 04:21:50;;;;;;;5.05;2.02;;;27.90;97.50;;;;;;1992566;70;21155;-74
2021/10/19 04:24:21;;;;;;;2.20;1.47;;;28.00;97.70;;;;;;1984318;70;22205;-73
2021/10/19 04:26:52;;;;;;;4.22;1.47;;;28.00;97.60;;;;;;1998212;70;21603;-73
2021/10/19 04:29:23;;;;;;;3.58;1.67;;;28.10;97.50;;;;;;1979572;70;21594;-73
2021/10/19 04:31:53;;;;;;;2.72;1.47;;;28.20;97.20;;;;;;1985630;70;21551;-72
2021/10/19 04:34:24;;;;;;;4.97;3.05;;;28.30;97.10;;;;;;1999933;70;21189;-72
2021/10/19 04:36:55;;;;;;;3.35;2.10;;;28.40;97.50;;;;;;1983472;69;21120;-73
2021/10/19 04:39:26;;;;;;;3.22;1.85;;;28.50;97.00;;;;;;2003256;70;21573;-73
2021/10/19 04:41:57;;;;;;;4.78;1.32;;;28.70;96.80;;;;;;2001166;70;21095;-73
2021/10/19 04:44:28;;;;;;;3.15;1.77;;;28.80;96.20;;;;;;1989146;70;21185;-73
2021/10/19 04:47:02;;;;;;;3.05;1.67;;;29.00;96.20;;;;;;1988637;71;21147;-74
2021/10/19 04:49:35;;;;;;;3.10;1.50;;;29.10;95.40;;;;;;1983888;70;21610;-72
2021/10/19 04:52:06;;;;;;;3.02;1.60;;;29.10;95.60;;;;;;1988740;70;21068;-72
2021/10/19 04:54:37;;;;;;;3.12;1.57;;;29.10;95.80;;;;;;2009520;70;21233;-73
2021/10/19 04:57:08;;;;;;;2.95;1.52;;;29.20;95.70;;;;;;1996482;70;21119;-73
2021/10/19 04:59:39;;;;;;;5.87;1.85;;;29.20;95.60;;;;;;1992581;70;21157;-73
2021/10/19 05:02:11;;;;;;;3.08;1.60;;;29.20;95.70;;;;;;1978165;70;21127;-72
2021/10/19 05:04:44;;;;;;;2.52;1.55;;;29.40;95.50;;;;;;1989545;70;21177;-72
2021/10/19 05:07:15;;;;;;;3.02;1.55;;;29.40;95.60;;;;;;1979565;71;21599;-73
2021/10/19 05:09:46;;;;;;;4.53;1.90;;;29.60;95.50;;;;;;1991504;70;21195;-74
2021/10/19 05:12:17;;;;;;;2.08;1.30;;;29.70;95.00;;;;;;1983950;70;21199;-74
2021/10/19 05:14:49;;;;;;;2.15;1.37;;;29.70;94.70;;;;;;1971255;71;22150;-74
2021/10/19 05:17:20;;;;;;;2.35;1.47;;;29.80;94.80;;;;;;1937833;72;21105;-73
2021/10/19 05:19:55;;;;;;;2.98;1.42;;;29.90;94.60;;;;;;1959043;72;21209;-72
2021/10/19 05:22:26;;;;;;;3.02;1.40;;;29.90;94.70;;;;;;1937982;71;21120;-73
2021/10/19 05:24:57;;;;;;;3.27;1.40;;;30.00;94.70;;;;;;1947195;72;21237;-73
2021/10/19 05:27:28;;;;;;;3.80;1.30;;;29.90;94.60;;;;;;1975516;71;21194;-71
2021/10/19 05:29:59;;;;;;;4.15;1.70;;;29.80;94.60;;;;;;1972198;71;21035;-72
2021/10/19 05:32:30;;;;;;;2.67;1.80;;;29.70;94.80;;;;;;1958010;72;21239;-72
2021/10/19 05:35:01;;;;;;;5.62;3.08;;;29.70;95.00;;;;;;1970250;72;21090;-72
2021/10/19 05:37:32;;;;;;;2.95;1.50;;;29.60;95.20;;;;;;1948953;71;21127;-72
2021/10/19 05:40:05;;;;;;;4.30;1.40;;;29.50;95.40;;;;;;1964162;71;21680;-72
2021/10/19 05:42:37;;;;;;;2.08;1.30;;;29.50;95.60;;;;;;1950323;70;21211;-73
2021/10/19 05:45:09;;;;;;;2.77;1.62;;;29.60;95.70;;;;;;1971495;70;21117;-73
2021/10/19 05:47:42;;;;;;;5.12;2.05;;;29.60;95.60;;;;;;1961748;71;21109;-72
2021/10/19 05:50:12;;;;;;;3.62;2.20;;;29.60;95.40;;;;;;1949098;71;21159;-72
2021/10/19 05:52:43;;;;;;;4.30;1.80;;;29.60;95.70;;;;;;1954503;71;21634;-73
2021/10/19 05:55:14;;;;;;;3.58;2.22;;;29.50;95.50;;;;;;1957725;72;21159;-72
2021/10/19 05:57:45;;;;;;;3.45;1.60;;;29.50;95.60;;;;;;1954013;72;21662;-72
2021/10/19 06:00:16;;;;;;;2.62;1.45;;;29.40;95.60;;;;;;1968469;70;21615;-72
2021/10/19 06:02:50;;;;;;;3.37;1.70;;;29.30;95.80;;;;;;1951536;71;21690;-74
2021/10/19 06:05:22;;;;;;;2.72;1.70;;;29.30;96.00;;;;;;1937581;70;21245;-73
2021/10/19 06:07:53;;;;;;;2.62;1.70;;;29.20;96.10;;;;;;1956061;70;21204;-73
2021/10/19 06:10:24;;;;;;;3.22;1.90;;;29.10;96.40;;;;;;1961630;71;21134;-72
2021/10/19 06:12:55;;;;;;;4.67;2.30;;;29.00;96.60;;;;;;1945874;70;21655;-73
2021/10/19 06:15:26;;;;;;;4.12;1.85;;;28.90;96.80;;;;;;1943311;72;21587;-72
2021/10/19 06:17:57;;;;;;;2.80;1.50;;;28.90;97.20;;;;;;1931532;72;21159;-72
2021/10/19 06:20:27;;;;;;;2.70;1.72;;;28.90;97.20;;;;;;1942532;72;21747;-73
2021/10/19 06:23:03;;;;;;;3.58;1.62;;;28.80;97.30;;;;;;1929351;72;21127;-72
2021/10/19 06:25:42;;;;;;;5.53;2.35;;;28.70;97.40;;;;;;1935864;72;21080;-73
2021/10/19 06:28:14;;;;;;;4.42;1.95;;;28.70;97.50;;;;;;1954649;72;21143;-72
2021/10/19 06:30:45;;;;;;;4.40;1.77;;;28.70;97.80;;;;;;1964273;71;21100;-72
2021/10/19 06:33:16;;;;;;;2.60;1.75;;;28.70;97.80;;;;;;1956177;72;21107;-73
2021/10/19 06:35:47;;;;;;;3.35;1.75;;;28.70;97.80;;;;;;1946912;72;21127;-73
2021/10/19 06:38:18;;;;;;;3.80;1.67;;;28.60;97.80;;;;;;1949530;72;21643;-73
2021/10/19 06:40:48;;;;;;;8.18;2.10;;;28.60;97.90;;;;;;1967761;71;21066;-73
2021/10/19 06:43:20;;;;;;;3.30;2.10;;;28.60;98.00;;;;;;1974180;71;21615;-73
2021/10/19 06:45:51;;;;;;;2.87;1.80;;;28.60;98.00;;;;;;1971145;72;21492;-72
2021/10/19 06:48:22;;;;;;;3.40;2.02;;;28.60;98.00;;;;;;1975390;71;21077;-76
2021/10/19 06:50:52;;;;;;;5.92;1.90;;;28.60;98.00;;;;;;1973249;71;21526;-73
2021/10/19 06:53:25;;;;;;;2.77;1.87;;;28.70;98.00;;;;;;1981176;71;21158;-73
2021/10/19 06:55:56;;;;;;;3.55;1.92;;;28.70;98.00;;;;;;1969034;71;21123;-73
2021/10/19 06:58:27;;;;;;;2.92;1.85;;;28.70;97.90;;;;;;1978767;71;21075;-73
2021/10/19 07:01:00;;;;;;;3.15;2.08;;;28.80;97.80;;;;;;1951599;71;21196;-73
2021/10/19 07:03:34;;;;;;;4.70;2.02;;;28.80;97.80;;;;;;1973842;71;21064;-73
2021/10/19 07:06:07;;;;;;;3.20;1.77;;;28.80;97.70;;;;;;1965455;72;21067;-73
2021/10/19 07:08:40;;;;;;;6.37;1.70;;;28.80;97.70;;;;;;1974898;71;21157;-72
2021/10/19 07:11:12;;;;;;;3.50;1.65;;;28.70;97.70;;;;;;1990424;71;21182;-72
2021/10/19 07:13:44;;;;;;;2.47;1.72;;;28.70;97.80;;;;;;1960797;71;21162;-72
2021/10/19 07:16:15;;;;;;;11.10;2.70;;;28.70;97.90;;;;;;1947174;71;21135;-74
2021/10/19 07:18:46;;;;;;;5.65;2.20;;;28.70;97.50;;;;;;1915169;73;21567;-74
2021/10/19 07:21:17;;;;;;;4.42;1.82;;;28.70;97.90;;;;;;1924871;73;21196;-74
2021/10/19 07:23:49;;;;;;;7.08;2.08;;;28.70;97.90;;;;;;1909709;73;21625;-72
2021/10/19 07:26:20;;;;;;;30.32;4.58;;;28.70;97.90;;;;;;1981509;71;21179;-72
2021/10/19 07:28:50;;;;;;;3.98;1.85;;;28.70;97.70;;;;;;1956546;72;21119;-73
2021/10/19 07:31:24;;;;;;;9.30;5.20;;;28.70;97.60;;;;;;1972635;71;21147;-73
2021/10/19 07:33:55;;;;;;;4.37;2.20;;;28.80;97.50;;;;;;1979170;72;21267;-74
2021/10/19 07:36:26;;;;;;;2.95;1.82;;;28.80;97.40;;;;;;1981190;72;21233;-74
2021/10/19 07:38:56;;;;;;;8.00;3.72;;;28.80;97.30;;;;;;1968852;71;21116;-75
2021/10/19 07:41:28;;;;;;;3.85;1.70;;;28.80;97.50;;;;;;1951889;71;21084;-74
2021/10/19 07:43:58;;;;;;;4.35;2.90;;;28.80;97.50;;;;;;1972358;72;21537;-74
2021/10/19 07:46:29;;;;;;;4.92;1.87;;;28.80;97.40;;;;;;1982022;70;21139;-72
2021/10/19 07:49:00;;;;;;;2.98;1.67;;;28.80;97.50;;;;;;1966328;70;21127;-72
2021/10/19 07:51:31;;;;;;;7.80;3.92;;;28.90;97.40;;;;;;1986535;71;21126;-72
2021/10/19 07:54:04;;;;;;;4.58;1.75;;;28.90;97.40;;;;;;1964834;71;21151;-71
2021/10/19 07:56:38;;;;;;;7.05;4.20;;;28.90;97.50;;;;;;1978627;70;21131;-74
2021/10/19 07:59:09;;;;;;;6.22;2.83;;;28.90;97.70;;;;;;1975191;70;21515;-74
2021/10/19 08:01:41;;;;;;;3.52;1.92;;;28.90;97.40;;;;;;1976709;70;21167;-74
2021/10/19 08:04:12;;;;;;;12.70;7.08;;;28.90;97.40;;;;;;1921532;73;21144;-74
2021/10/19 08:06:43;;;;;;;16.02;5.03;;;28.90;97.40;;;;;;1944320;71;22015;-74
2021/10/19 08:09:14;;;;;;;5.87;3.30;;;28.90;97.60;;;;;;1975000;71;21206;-72
2021/10/19 08:11:44;;;;;;;9.35;4.55;;;28.90;97.60;;;;;;1968329;72;21056;-73
2021/10/19 08:14:16;;;;;;;5.00;1.92;;;28.80;97.80;;;;;;1966008;71;21608;-72
2021/10/19 08:16:47;;;;;;;2.87;1.80;;;28.80;97.60;;;;;;1955906;71;21068;-72
2021/10/19 08:19:17;;;;;;;2.30;1.50;;;28.90;97.50;;;;;;1943724;71;21187;-74
2021/10/19 08:21:49;;;;;;;2.47;1.50;;;28.90;97.50;;;;;;1959195;71;21131;-73
2021/10/19 08:24:20;;;;;;;2.47;1.80;;;28.90;97.50;;;;;;1955289;72;21182;-73
2021/10/19 08:26:50;;;;;;;4.33;1.98;;;28.90;97.50;;;;;;1951136;72;21170;-72
2021/10/19 08:29:21;;;;;;;6.67;2.12;;;28.90;97.50;;;;;;1967457;72;21127;-75
2021/10/19 08:31:52;;;;;;;3.67;2.05;;;28.90;97.60;;;;;;1961060;71;21134;-74
2021/10/19 08:34:23;;;;;;;71.65;12.15;;;28.90;97.70;;;;;;1974774;71;21850;-74
2021/10/19 08:36:54;;;;;;;7.67;2.35;;;28.90;97.80;;;;;;1965361;72;21583;-75
2021/10/19 08:39:25;;;;;;;3.22;1.72;;;28.90;97.80;;;;;;1946142;72;21200;-72
2021/10/19 08:41:56;;;;;;;4.65;1.65;;;28.90;97.80;;;;;;1963855;71;21144;-74
2021/10/19 08:44:27;;;;;;;3.40;1.90;;;28.90;97.90;;;;;;1950024;72;21158;-72
2021/10/19 08:46:58;;;;;;;2.70;1.72;;;28.90;97.80;;;;;;1982112;72;21681;-72
2021/10/19 08:49:29;;;;;;;29.57;5.75;;;28.90;97.80;;;;;;1964959;72;21193;-72
2021/10/19 08:52:00;;;;;;;99.85;15.55;;;28.90;97.80;;;;;;1972157;71;21182;-73
2021/10/19 08:54:31;;;;;;;4.58;1.90;;;28.90;97.80;;;;;;1969938;72;21131;-72
2021/10/19 08:57:02;;;;;;;4.33;1.55;;;28.90;97.80;;;;;;1970668;71;21155;-73
2021/10/19 08:59:34;;;;;;;5.30;2.17;;;28.90;97.80;;;;;;1970972;72;21167;-73
2021/10/19 09:02:05;;;;;;;10.30;2.72;;;28.90;97.90;;;;;;1957978;72;21425;-74
2021/10/19 09:04:35;;;;;;;3.83;1.77;;;28.90;97.90;;;;;;1948689;70;21674;-73
2021/10/19 09:07:08;;;;;;;4.05;1.90;;;28.80;97.90;;;;;;1958128;72;21694;-72
2021/10/19 09:09:39;;;;;;;3.80;1.80;;;28.80;98.00;;;;;;1947734;72;22014;-74
2021/10/19 09:12:10;;;;;;;191.40;36.28;;;28.80;98.00;;;;;;1950596;71;21146;-74
2021/10/19 09:14:44;;;;;;;120.13;21.87;;;28.80;98.00;;;;;;1973132;72;21075;-74
2021/10/19 09:17:14;;;;;;;14.45;3.85;;;28.80;97.80;;;;;;1964169;71;21195;-72
2021/10/19 09:19:46;;;;;;;4.62;1.85;;;28.80;97.70;;;;;;1937769;72;21128;-73
2021/10/19 09:22:18;;;;;;;5.65;2.08;;;28.80;97.50;;;;;;1950096;72;21103;-74
2021/10/19 09:24:50;;;;;;;8.78;2.27;;;28.80;97.60;;;;;;1966559;71;21129;-72
2021/10/19 09:27:21;;;;;;;12.70;3.72;;;28.90;97.70;;;;;;1968712;71;21595;-72
2021/10/19 09:29:53;;;;;;;3.77;2.10;;;28.80;97.60;;;;;;1978634;70;21080;-73
2021/10/19 09:32:23;;;;;;;4.72;2.35;;;28.80;97.50;;;;;;1982929;72;21614;-73
2021/10/19 09:34:54;;;;;;;4.37;2.50;;;28.80;97.60;;;;;;1957419;72;21185;-73
2021/10/19 09:37:34;;;;;;;7.28;2.95;;;28.80;97.80;;;;;;1968323;71;21608;-73
2021/10/19 09:40:07;;;;;;;7.37;2.80;;;28.80;97.80;;;;;;1976364;71;21788;-75
2021/10/19 09:42:38;;;;;;;4.15;1.85;;;28.80;98.00;;;;;;1960604;70;21208;-74
2021/10/19 09:45:10;;;;;;;5.87;2.37;;;28.80;98.00;;;;;;1965554;71;21571;-74
2021/10/19 09:47:40;;;;;;;5.42;2.40;;;28.70;98.00;;;;;;1984821;71;21163;-73
2021/10/19 09:50:11;;;;;;;3.35;1.98;;;28.70;98.10;;;;;;1950208;71;21076;-72
2021/10/19 09:52:44;;;;;;;5.15;2.22;;;28.70;98.20;;;;;;1966673;72;21167;-78
2021/10/19 09:55:16;;;;;;;3.58;2.27;;;28.70;98.20;;;;;;1907950;72;21082;-72
2021/10/19 09:57:50;;;;;;;4.67;2.72;;;28.70;98.30;;;;;;1898795;74;21147;-72
2021/10/19 10:00:22;;;;;;;5.60;2.58;;;28.70;98.40;;;;;;1903176;72;21157;-74
2021/10/19 10:02:53;;;;;;;6.72;2.80;;;28.70;98.30;;;;;;1971378;71;21115;-74
2021/10/19 10:05:24;;;;;;;5.87;2.10;;;28.70;98.30;;;;;;1970144;71;21259;-74
2021/10/19 10:07:57;;;;;;;6.33;2.37;;;28.70;98.20;;;;;;1971898;70;21145;-76
2021/10/19 10:10:29;;;;;;;4.17;2.15;;;28.60;98.20;;;;;;1955075;70;21115;-74
2021/10/19 10:13:02;;;;;;;4.40;2.70;;;28.60;98.20;;;;;;1955790;71;21614;-74
2021/10/19 10:15:35;;;;;;;4.47;2.20;;;28.60;98.30;;;;;;1979373;71;21606;-74
2021/10/19 10:18:10;;;;;;;5.22;2.02;;;28.60;98.30;;;;;;1958988;71;21249;-75
2021/10/19 10:20:44;;;;;;;4.92;2.30;;;28.50;98.40;;;;;;1878439;74;21140;-75
2021/10/19 10:23:15;;;;;;;3.12;1.90;;;28.50;98.40;;;;;;1942990;72;21128;-74
2021/10/19 10:25:48;;;;;;;3.72;2.05;;;28.50;98.50;;;;;;1967970;71;21175;-74
2021/10/19 10:28:20;;;;;;;3.72;1.82;;;28.40;98.40;;;;;;1956034;70;21743;-73
2021/10/19 10:30:51;;;;;;;3.98;2.52;;;28.40;98.40;;;;;;1966947;71;21123;-74
2021/10/19 10:33:24;;;;;;;5.40;3.17;;;28.40;98.80;;;;;;1949182;71;21608;-73
2021/10/19 10:35:58;;;;;;;8.33;3.92;;;28.40;98.40;;;;;;1957969;71;21158;-74
2021/10/19 10:38:29;;;;;;;7.58;3.25;;;28.40;98.50;;;;;;1973132;71;21183;-73
2021/10/19 10:41:02;;;;;;;6.58;4.37;;;28.30;98.50;;;;;;1977453;71;21526;-74
2021/10/19 10:43:36;;;;;;;11.20;3.75;;;28.40;98.60;;;;;;1970996;71;21869;-73
2021/10/19 10:46:11;;;;;;;4.75;3.70;;;28.30;98.60;;;;;;1985023;71;21174;-74
2021/10/19 10:48:56;;;;;;;5.87;2.58;;;28.30;98.80;;;;;;1968559;72;21140;-73
2021/10/19 10:51:29;;;;;;;5.58;2.95;;;28.30;99.00;;;;;;1942843;71;21147;-73
2021/10/19 10:54:02;;;;;;;9.35;4.83;;;28.30;99.10;;;;;;1944324;71;21509;-73
2021/10/19 10:56:35;;;;;;;6.80;2.55;;;28.30;99.20;;;;;;1950811;71;21674;-73
2021/10/19 10:59:06;;;;;;;5.40;2.40;;;28.30;99.30;;;;;;2006877;70;21177;-74
2021/10/19 11:01:36;;;;;;;6.70;2.55;;;28.30;99.40;;;;;;1992565;71;21071;-74
2021/10/19 11:04:10;;;;;;;4.28;2.52;;;28.20;99.40;;;;;;1997431;71;21181;-73
2021/10/19 11:06:42;;;;;;;4.17;3.33;;;28.20;99.50;;;;;;1990708;71;21221;-74
2021/10/19 11:09:15;;;;;;;5.00;2.87;;;28.20;99.60;;;;;;1917713;73;21096;-74
2021/10/19 11:11:53;;;;;;;6.17;2.70;;;28.20;99.70;;;;;;1929153;73;21685;-74
2021/10/19 11:14:24;;;;;;;5.85;3.22;;;28.20;99.70;;;;;;1907865;73;21201;-73
2021/10/19 11:16:57;;;;;;;9.10;3.60;;;28.20;99.90;;;;;;1950943;72;21222;-74
2021/10/19 11:19:33;;;;;;;5.60;3.08;;;28.20;99.90;;;;;;1932024;72;21537;-73
2021/10/19 11:22:07;;;;;;;5.42;3.17;;;28.10;99.80;;;;;;1911769;74;21214;-73
2021/10/19 11:24:38;;;;;;;6.33;3.83;;;28.10;99.90;;;;;;1954277;72;21115;-73
2021/10/19 11:27:11;;;;;;;7.00;4.22;;;28.10;99.90;;;;;;1966584;72;21617;-74
2021/10/19 11:29:42;;;;;;;7.12;4.40;;;28.10;99.90;;;;;;1946841;71;21139;-73
2021/10/19 11:32:19;;;;;;;8.90;4.20;;;28.10;99.90;;;;;;1960156;71;21725;-73
2021/10/19 11:34:49;;;;;;;7.05;4.22;;;28.10;99.90;;;;;;1934741;72;21211;-73
2021/10/19 11:37:20;;;;;;;7.70;4.95;;;28.10;99.90;;;;;;1941831;71;21195;-73
2021/10/19 11:39:53;;;;;;;7.67;4.78;;;28.10;99.90;;;;;;1938477;71;21656;-74
2021/10/19 11:42:35;;;;;;;9.30;4.35;;;28.10;99.90;;;;;;1877589;74;21155;-73
2021/10/19 11:45:08;;;;;;;7.50;4.47;;;28.10;99.90;;;;;;1936404;72;21213;-73
2021/10/19 11:47:41;;;;;;;10.82;4.62;;;28.00;99.90;;;;;;1947790;72;21162;-72
2021/10/19 11:50:13;;;;;;;9.78;4.72;;;28.00;99.90;;;;;;1951578;72;21717;-72
2021/10/19 11:52:44;;;;;;;8.58;4.22;;;28.00;99.90;;;;;;1943560;72;21257;-72
2021/10/19 11:55:16;;;;;;;8.28;5.72;;;28.00;99.90;;;;;;1899407;74;21587;-72
2021/10/19 11:57:50;;;;;;;8.55;5.08;;;28.00;99.90;;;;;;1936427;72;21106;-72
2021/10/19 12:00:23;;;;;;;8.53;5.42;;;28.00;99.90;;;;;;1926027;72;21100;-74
2021/10/19 12:03:04;;;;;;;9.60;5.15;;;28.00;99.90;;;;;;1954793;72;21212;-73
2021/10/19 12:05:46;;;;;;;9.28;5.65;;;27.90;99.90;;;;;;1944234;72;21097;-72
2021/10/19 12:08:20;;;;;;;11.73;5.70;;;27.90;99.90;;;;;;1928034;72;21154;-73
2021/10/19 12:10:53;;;;;;;9.55;5.37;;;27.90;99.90;;;;;;1949359;72;21220;-75
2021/10/19 12:13:33;;;;;;;12.88;5.62;;;27.90;99.90;;;;;;1927592;73;21222;-76
2021/10/19 12:16:10;;;;;;;8.85;5.85;;;27.90;99.90;;;;;;1892709;74;21658;-75
2021/10/19 12:18:41;;;;;;;7.70;5.00;;;27.90;99.90;;;;;;1929659;72;21112;-72
2021/10/19 12:21:13;;;;;;;8.68;5.10;;;27.90;99.90;;;;;;1944991;72;21210;-73
2021/10/19 12:23:54;;;;;;;7.87;5.03;;;27.90;99.90;;;;;;1922391;72;21593;-74
2021/10/19 12:27:00;;;;;;;6.90;5.05;;;27.90;99.90;;;;;;1935255;73;21788;-75
2021/10/19 12:29:22;;;;;;;9.28;5.78;;;27.90;99.90;;;;;;1926080;72;21114;-73
2021/10/19 12:32:06;;;;;;;9.73;6.12;;;27.90;99.90;;;;;;1944692;72;21135;-73
2021/10/19 12:34:37;;;;;;;11.75;5.60;;;27.90;99.90;;;;;;1889142;74;21259;-74
2021/10/19 12:37:18;;;;;;;8.73;5.10;;;27.80;99.90;;;;;;1869971;74;21688;-76
2021/10/19 12:39:51;;;;;;;7.50;5.12;;;27.80;99.90;;;;;;1867703;75;21207;-71
2021/10/19 12:42:21;;;;;;;9.23;4.90;;;27.80;99.90;;;;;;1944261;72;21177;-72
2021/10/19 12:44:52;;;;;;;9.10;4.97;;;27.70;99.90;;;;;;1944599;72;21108;-72
2021/10/19 12:47:23;;;;;;;9.63;4.70;;;27.80;99.90;;;;;;1947844;72;21130;-73
2021/10/19 12:49:54;;;;;;;8.70;5.00;;;27.80;99.90;;;;;;1954030;72;21150;-72
2021/10/19 12:52:24;;;;;;;8.20;4.72;;;27.70;99.90;;;;;;1898262;74;21222;-71
2021/10/19 12:54:55;;;;;;;8.45;4.78;;;27.70;99.90;;;;;;1942045;72;21625;-73
2021/10/19 12:57:29;;;;;;;7.95;4.92;;;27.70;99.90;;;;;;1952511;72;21186;-72
2021/10/19 12:59:59;;;;;;;7.53;4.05;;;27.70;99.90;;;;;;1941072;72;21110;-73
2021/10/19 13:02:30;;;;;;;5.60;4.20;;;27.70;99.90;;;;;;1929591;72;21190;-72
2021/10/19 13:05:03;;;;;;;6.33;4.28;;;27.70;99.90;;;;;;1918151;73;21588;-72
2021/10/19 13:07:34;;;;;;;10.23;4.40;;;27.70;99.90;;;;;;1933301;72;21610;-72
2021/10/19 13:10:06;;;;;;;6.83;3.90;;;27.70;99.90;;;;;;1946159;72;21118;-73